sensor_id;sensor_type;location;lat;lon;timestamp;P1;durP1;ratioP1;P2;durP2;ratioP2
7432;SDS011;32233;49.500;7.764;2023-01-01T00:01:22;8.73;;;6.93;;
7432;SDS011;32233;49.500;7.764;2023-01-01T00:03:50;7.63;;;6.33;;
7432;SDS011;32233;49.500;7.764;2023-01-01T00:06:17;7.17;;;6.27;;
7432;SDS011;32233;49.500;7.764;2023-01-01T00:08:44;6.83;;;5.43;;
7432;SDS011;32233;49.500;7.764;2023-01-01T00:11:11;9.23;;;5.70;;
7432;SDS011;32233;49.500;7.764;2023-01-01T00:13:38;7.03;;;4.53;;
7432;SDS011;32233;49.500;7.764;2023-01-01T00:16:06;6.20;;;4.43;;
7432;SDS011;32233;49.500;7.764;2023-01-01T00:18:35;7.80;;;4.67;;
7432;SDS011;32233;49.500;7.764;2023-01-01T00:21:02;5.93;;;4.03;;
7432;SDS011;32233;49.500;7.764;2023-01-01T00:23:37;6.67;;;3.97;;
7432;SDS011;32233;49.500;7.764;2023-01-01T00:26:10;5.80;;;4.40;;
7432;SDS011;32233;49.500;7.764;2023-01-01T00:28:38;6.07;;;4.60;;
7432;SDS011;32233;49.500;7.764;2023-01-01T00:31:11;6.67;;;4.13;;
7432;SDS011;32233;49.500;7.764;2023-01-01T00:33:41;6.73;;;4.23;;
7432;SDS011;32233;49.500;7.764;2023-01-01T00:36:12;6.67;;;3.50;;
7432;SDS011;32233;49.500;7.764;2023-01-01T00:38:40;7.43;;;4.33;;
7432;SDS011;32233;49.500;7.764;2023-01-01T00:41:08;4.97;;;3.70;;
7432;SDS011;32233;49.500;7.764;2023-01-01T00:43:35;5.57;;;4.20;;
7432;SDS011;32233;49.500;7.764;2023-01-01T00:46:02;4.90;;;3.50;;
7432;SDS011;32233;49.500;7.764;2023-01-01T00:48:30;6.10;;;3.57;;
7432;SDS011;32233;49.500;7.764;2023-01-01T00:50:56;4.73;;;3.07;;
7432;SDS011;32233;49.500;7.764;2023-01-01T00:53:23;3.30;;;3.00;;
7432;SDS011;32233;49.500;7.764;2023-01-01T00:55:50;3.80;;;3.10;;
7432;SDS011;32233;49.500;7.764;2023-01-01T00:58:18;3.97;;;2.77;;
7432;SDS011;32233;49.500;7.764;2023-01-01T01:00:45;5.47;;;2.77;;
7432;SDS011;32233;49.500;7.764;2023-01-01T01:03:12;3.87;;;2.93;;
7432;SDS011;32233;49.500;7.764;2023-01-01T01:05:54;3.87;;;3.00;;
7432;SDS011;32233;49.500;7.764;2023-01-01T01:08:31;3.70;;;2.80;;
7432;SDS011;32233;49.500;7.764;2023-01-01T01:11:05;3.73;;;2.70;;
7432;SDS011;32233;49.500;7.764;2023-01-01T01:13:40;4.90;;;3.13;;
7432;SDS011;32233;49.500;7.764;2023-01-01T01:16:15;6.50;;;3.63;;
7432;SDS011;32233;49.500;7.764;2023-01-01T01:18:44;2.77;;;2.50;;
7432;SDS011;32233;49.500;7.764;2023-01-01T01:21:15;3.57;;;3.00;;
7432;SDS011;32233;49.500;7.764;2023-01-01T01:23:43;4.07;;;2.60;;
7432;SDS011;32233;49.500;7.764;2023-01-01T01:26:11;2.80;;;2.50;;
7432;SDS011;32233;49.500;7.764;2023-01-01T01:28:40;3.53;;;2.50;;
7432;SDS011;32233;49.500;7.764;2023-01-01T01:31:15;3.00;;;2.40;;
7432;SDS011;32233;49.500;7.764;2023-01-01T01:33:42;2.60;;;2.10;;
7432;SDS011;32233;49.500;7.764;2023-01-01T01:36:10;4.40;;;2.40;;
7432;SDS011;32233;49.500;7.764;2023-01-01T01:38:37;2.73;;;2.40;;
7432;SDS011;32233;49.500;7.764;2023-01-01T01:41:04;3.23;;;2.60;;
7432;SDS011;32233;49.500;7.764;2023-01-01T01:46:04;3.37;;;2.17;;
7432;SDS011;32233;49.500;7.764;2023-01-01T01:48:36;3.77;;;1.77;;
7432;SDS011;32233;49.500;7.764;2023-01-01T01:51:06;4.10;;;2.40;;
7432;SDS011;32233;49.500;7.764;2023-01-01T01:53:34;3.10;;;2.20;;
7432;SDS011;32233;49.500;7.764;2023-01-01T01:56:04;3.67;;;2.30;;
7432;SDS011;32233;49.500;7.764;2023-01-01T01:58:35;4.90;;;2.30;;
7432;SDS011;32233;49.500;7.764;2023-01-01T02:01:02;4.30;;;2.40;;
7432;SDS011;32233;49.500;7.764;2023-01-01T02:06:05;4.13;;;2.33;;
7432;SDS011;32233;49.500;7.764;2023-01-01T02:08:32;4.00;;;2.33;;
7432;SDS011;32233;49.500;7.764;2023-01-01T02:11:00;2.67;;;1.63;;
7432;SDS011;32233;49.500;7.764;2023-01-01T02:13:26;2.83;;;2.00;;
7432;SDS011;32233;49.500;7.764;2023-01-01T02:15:54;3.87;;;2.60;;
7432;SDS011;32233;49.500;7.764;2023-01-01T02:18:31;3.23;;;2.30;;
7432;SDS011;32233;49.500;7.764;2023-01-01T02:32:02;2.57;;;1.77;;
7432;SDS011;32233;49.500;7.764;2023-01-01T02:34:52;2.50;;;2.30;;
7432;SDS011;32233;49.500;7.764;2023-01-01T02:37:46;2.57;;;1.90;;
7432;SDS011;32233;49.500;7.764;2023-01-01T02:40:15;5.80;;;2.20;;
7432;SDS011;32233;49.500;7.764;2023-01-01T02:42:46;3.23;;;2.27;;
7432;SDS011;32233;49.500;7.764;2023-01-01T02:45:13;3.00;;;1.90;;
7432;SDS011;32233;49.500;7.764;2023-01-01T02:47:40;2.67;;;1.83;;
7432;SDS011;32233;49.500;7.764;2023-01-01T02:50:14;2.70;;;1.93;;
7432;SDS011;32233;49.500;7.764;2023-01-01T02:55:24;3.07;;;1.90;;
7432;SDS011;32233;49.500;7.764;2023-01-01T02:58:14;2.53;;;2.13;;
7432;SDS011;32233;49.500;7.764;2023-01-01T03:01:08;3.00;;;2.10;;
7432;SDS011;32233;49.500;7.764;2023-01-01T03:03:49;4.00;;;2.00;;
7432;SDS011;32233;49.500;7.764;2023-01-01T03:06:23;4.73;;;1.83;;
7432;SDS011;32233;49.500;7.764;2023-01-01T03:11:40;2.43;;;1.93;;
7432;SDS011;32233;49.500;7.764;2023-01-01T03:17:10;3.57;;;1.90;;
7432;SDS011;32233;49.500;7.764;2023-01-01T03:19:43;8.17;;;2.70;;
7432;SDS011;32233;49.500;7.764;2023-01-01T03:22:14;2.20;;;2.00;;
7432;SDS011;32233;49.500;7.764;2023-01-01T03:24:47;4.00;;;2.17;;
7432;SDS011;32233;49.500;7.764;2023-01-01T03:27:29;3.87;;;2.17;;
7432;SDS011;32233;49.500;7.764;2023-01-01T03:30:02;2.27;;;2.00;;
7432;SDS011;32233;49.500;7.764;2023-01-01T03:32:38;4.67;;;2.60;;
7432;SDS011;32233;49.500;7.764;2023-01-01T03:35:43;4.50;;;1.90;;
7432;SDS011;32233;49.500;7.764;2023-01-01T03:38:12;3.10;;;2.30;;
7432;SDS011;32233;49.500;7.764;2023-01-01T03:40:44;5.83;;;2.33;;
7432;SDS011;32233;49.500;7.764;2023-01-01T03:43:16;3.37;;;1.80;;
7432;SDS011;32233;49.500;7.764;2023-01-01T03:45:50;5.50;;;2.37;;
7432;SDS011;32233;49.500;7.764;2023-01-01T03:48:19;3.27;;;2.00;;
7432;SDS011;32233;49.500;7.764;2023-01-01T03:53:38;2.10;;;1.90;;
7432;SDS011;32233;49.500;7.764;2023-01-01T03:56:15;4.97;;;2.30;;
7432;SDS011;32233;49.500;7.764;2023-01-01T03:58:55;6.93;;;2.30;;
7432;SDS011;32233;49.500;7.764;2023-01-01T04:01:34;2.23;;;1.87;;
7432;SDS011;32233;49.500;7.764;2023-01-01T04:04:05;4.77;;;2.53;;
7432;SDS011;32233;49.500;7.764;2023-01-01T04:06:33;4.67;;;2.20;;
7432;SDS011;32233;49.500;7.764;2023-01-01T04:08:59;4.13;;;1.97;;
7432;SDS011;32233;49.500;7.764;2023-01-01T04:11:30;5.23;;;2.00;;
7432;SDS011;32233;49.500;7.764;2023-01-01T04:14:29;4.40;;;2.23;;
7432;SDS011;32233;49.500;7.764;2023-01-01T04:16:58;4.27;;;2.20;;
7432;SDS011;32233;49.500;7.764;2023-01-01T04:19:26;5.07;;;2.33;;
7432;SDS011;32233;49.500;7.764;2023-01-01T04:21:53;6.20;;;2.20;;
7432;SDS011;32233;49.500;7.764;2023-01-01T04:24:19;3.90;;;2.30;;
7432;SDS011;32233;49.500;7.764;2023-01-01T04:26:46;3.97;;;2.13;;
7432;SDS011;32233;49.500;7.764;2023-01-01T04:29:14;3.17;;;2.17;;
7432;SDS011;32233;49.500;7.764;2023-01-01T04:31:40;3.83;;;2.10;;
7432;SDS011;32233;49.500;7.764;2023-01-01T04:34:07;2.97;;;2.10;;
7432;SDS011;32233;49.500;7.764;2023-01-01T04:36:33;3.57;;;1.93;;
7432;SDS011;32233;49.500;7.764;2023-01-01T04:39:01;4.57;;;2.03;;
7432;SDS011;32233;49.500;7.764;2023-01-01T04:41:28;5.30;;;2.03;;
7432;SDS011;32233;49.500;7.764;2023-01-01T04:43:54;3.77;;;1.90;;
7432;SDS011;32233;49.500;7.764;2023-01-01T04:46:21;3.20;;;2.03;;
7432;SDS011;32233;49.500;7.764;2023-01-01T04:48:48;2.50;;;1.80;;
7432;SDS011;32233;49.500;7.764;2023-01-01T04:51:16;3.57;;;1.83;;
7432;SDS011;32233;49.500;7.764;2023-01-01T04:53:45;5.87;;;2.07;;
7432;SDS011;32233;49.500;7.764;2023-01-01T04:56:14;3.30;;;1.97;;
7432;SDS011;32233;49.500;7.764;2023-01-01T04:58:43;3.47;;;2.10;;
7432;SDS011;32233;49.500;7.764;2023-01-01T05:01:18;3.30;;;1.83;;
7432;SDS011;32233;49.500;7.764;2023-01-01T05:03:47;3.37;;;2.00;;
7432;SDS011;32233;49.500;7.764;2023-01-01T05:06:14;2.93;;;1.80;;
7432;SDS011;32233;49.500;7.764;2023-01-01T05:08:42;3.07;;;2.20;;
7432;SDS011;32233;49.500;7.764;2023-01-01T05:11:14;6.50;;;2.20;;
7432;SDS011;32233;49.500;7.764;2023-01-01T05:13:46;5.30;;;1.93;;
7432;SDS011;32233;49.500;7.764;2023-01-01T05:16:18;2.77;;;1.87;;
7432;SDS011;32233;49.500;7.764;2023-01-01T05:18:46;5.07;;;1.80;;
7432;SDS011;32233;49.500;7.764;2023-01-01T05:21:14;6.60;;;1.90;;
7432;SDS011;32233;49.500;7.764;2023-01-01T05:23:45;2.83;;;1.87;;
7432;SDS011;32233;49.500;7.764;2023-01-01T05:26:15;5.33;;;1.87;;
7432;SDS011;32233;49.500;7.764;2023-01-01T05:28:41;3.17;;;1.70;;
7432;SDS011;32233;49.500;7.764;2023-01-01T05:31:10;6.40;;;2.10;;
7432;SDS011;32233;49.500;7.764;2023-01-01T05:33:39;5.20;;;1.90;;
7432;SDS011;32233;49.500;7.764;2023-01-01T05:36:11;3.83;;;1.63;;
7432;SDS011;32233;49.500;7.764;2023-01-01T05:38:41;2.80;;;1.70;;
7432;SDS011;32233;49.500;7.764;2023-01-01T05:41:08;5.27;;;2.10;;
7432;SDS011;32233;49.500;7.764;2023-01-01T05:43:37;3.70;;;1.77;;
7432;SDS011;32233;49.500;7.764;2023-01-01T05:46:04;4.10;;;1.67;;
7432;SDS011;32233;49.500;7.764;2023-01-01T05:48:33;2.53;;;1.80;;
7432;SDS011;32233;49.500;7.764;2023-01-01T05:51:05;3.87;;;1.87;;
7432;SDS011;32233;49.500;7.764;2023-01-01T05:53:39;5.37;;;2.13;;
7432;SDS011;32233;49.500;7.764;2023-01-01T05:56:06;3.17;;;2.27;;
7432;SDS011;32233;49.500;7.764;2023-01-01T05:58:33;4.10;;;1.80;;
7432;SDS011;32233;49.500;7.764;2023-01-01T06:01:04;2.37;;;1.80;;
7432;SDS011;32233;49.500;7.764;2023-01-01T06:03:41;5.00;;;2.00;;
7432;SDS011;32233;49.500;7.764;2023-01-01T06:06:09;3.27;;;1.67;;
7432;SDS011;32233;49.500;7.764;2023-01-01T06:08:39;2.73;;;1.87;;
7432;SDS011;32233;49.500;7.764;2023-01-01T06:11:06;6.37;;;2.10;;
7432;SDS011;32233;49.500;7.764;2023-01-01T06:13:35;4.23;;;1.70;;
7432;SDS011;32233;49.500;7.764;2023-01-01T06:16:02;5.30;;;1.83;;
7432;SDS011;32233;49.500;7.764;2023-01-01T06:18:30;2.00;;;1.53;;
7432;SDS011;32233;49.500;7.764;2023-01-01T06:21:02;2.30;;;1.70;;
7432;SDS011;32233;49.500;7.764;2023-01-01T06:23:32;3.77;;;1.80;;
7432;SDS011;32233;49.500;7.764;2023-01-01T06:26:09;4.47;;;2.00;;
7432;SDS011;32233;49.500;7.764;2023-01-01T06:28:36;5.03;;;1.90;;
7432;SDS011;32233;49.500;7.764;2023-01-01T06:31:03;2.53;;;1.83;;
7432;SDS011;32233;49.500;7.764;2023-01-01T06:33:31;6.60;;;1.60;;
7432;SDS011;32233;49.500;7.764;2023-01-01T06:36:00;6.63;;;1.87;;
7432;SDS011;32233;49.500;7.764;2023-01-01T06:38:29;4.73;;;1.60;;
7432;SDS011;32233;49.500;7.764;2023-01-01T06:40:57;6.90;;;2.00;;
7432;SDS011;32233;49.500;7.764;2023-01-01T06:43:25;4.07;;;1.67;;
7432;SDS011;32233;49.500;7.764;2023-01-01T06:48:29;6.03;;;1.50;;
7432;SDS011;32233;49.500;7.764;2023-01-01T06:50:57;3.87;;;2.00;;
7432;SDS011;32233;49.500;7.764;2023-01-01T06:53:30;3.47;;;1.70;;
7432;SDS011;32233;49.500;7.764;2023-01-01T06:55:57;5.10;;;1.80;;
7432;SDS011;32233;49.500;7.764;2023-01-01T06:58:23;5.17;;;1.83;;
7432;SDS011;32233;49.500;7.764;2023-01-01T07:00:51;3.50;;;1.87;;
7432;SDS011;32233;49.500;7.764;2023-01-01T07:03:17;3.53;;;1.80;;
7432;SDS011;32233;49.500;7.764;2023-01-01T07:05:45;6.90;;;1.90;;
7432;SDS011;32233;49.500;7.764;2023-01-01T07:08:13;2.07;;;1.60;;
7432;SDS011;32233;49.500;7.764;2023-01-01T07:10:40;6.63;;;2.07;;
7432;SDS011;32233;49.500;7.764;2023-01-01T07:13:06;5.67;;;1.90;;
7432;SDS011;32233;49.500;7.764;2023-01-01T07:15:33;5.67;;;1.60;;
7432;SDS011;32233;49.500;7.764;2023-01-01T07:17:59;4.03;;;1.90;;
7432;SDS011;32233;49.500;7.764;2023-01-01T07:20:26;4.17;;;1.80;;
7432;SDS011;32233;49.500;7.764;2023-01-01T07:22:52;7.70;;;2.17;;
7432;SDS011;32233;49.500;7.764;2023-01-01T07:25:19;5.67;;;1.90;;
7432;SDS011;32233;49.500;7.764;2023-01-01T07:27:45;7.07;;;1.87;;
7432;SDS011;32233;49.500;7.764;2023-01-01T07:30:12;5.83;;;1.97;;
7432;SDS011;32233;49.500;7.764;2023-01-01T07:32:38;2.37;;;1.70;;
7432;SDS011;32233;49.500;7.764;2023-01-01T07:35:05;3.20;;;1.73;;
7432;SDS011;32233;49.500;7.764;2023-01-01T07:37:32;4.63;;;1.57;;
7432;SDS011;32233;49.500;7.764;2023-01-01T07:39:58;4.23;;;1.57;;
7432;SDS011;32233;49.500;7.764;2023-01-01T07:42:25;3.50;;;1.70;;
7432;SDS011;32233;49.500;7.764;2023-01-01T07:44:51;5.33;;;1.90;;
7432;SDS011;32233;49.500;7.764;2023-01-01T07:47:22;7.03;;;1.90;;
7432;SDS011;32233;49.500;7.764;2023-01-01T07:49:50;7.77;;;2.20;;
7432;SDS011;32233;49.500;7.764;2023-01-01T07:52:17;4.27;;;2.10;;
7432;SDS011;32233;49.500;7.764;2023-01-01T07:54:44;6.40;;;1.93;;
7432;SDS011;32233;49.500;7.764;2023-01-01T07:57:11;6.70;;;1.93;;
7432;SDS011;32233;49.500;7.764;2023-01-01T07:59:37;5.17;;;1.93;;
7432;SDS011;32233;49.500;7.764;2023-01-01T08:02:04;4.13;;;1.80;;
7432;SDS011;32233;49.500;7.764;2023-01-01T08:04:31;5.63;;;1.97;;
7432;SDS011;32233;49.500;7.764;2023-01-01T08:06:57;4.00;;;2.00;;
7432;SDS011;32233;49.500;7.764;2023-01-01T08:09:24;4.87;;;2.20;;
7432;SDS011;32233;49.500;7.764;2023-01-01T08:11:50;5.77;;;2.20;;
7432;SDS011;32233;49.500;7.764;2023-01-01T08:14:18;7.37;;;1.83;;
7432;SDS011;32233;49.500;7.764;2023-01-01T08:16:44;7.33;;;2.57;;
7432;SDS011;32233;49.500;7.764;2023-01-01T08:19:11;7.20;;;1.97;;
7432;SDS011;32233;49.500;7.764;2023-01-01T08:21:37;4.10;;;1.80;;
7432;SDS011;32233;49.500;7.764;2023-01-01T08:24:04;3.77;;;1.73;;
7432;SDS011;32233;49.500;7.764;2023-01-01T08:26:32;5.67;;;2.00;;
7432;SDS011;32233;49.500;7.764;2023-01-01T08:29:00;4.77;;;1.77;;
7432;SDS011;32233;49.500;7.764;2023-01-01T08:31:28;5.93;;;2.20;;
7432;SDS011;32233;49.500;7.764;2023-01-01T08:33:55;4.63;;;2.20;;
7432;SDS011;32233;49.500;7.764;2023-01-01T08:36:21;5.47;;;2.20;;
7432;SDS011;32233;49.500;7.764;2023-01-01T08:38:48;6.43;;;2.10;;
7432;SDS011;32233;49.500;7.764;2023-01-01T08:41:15;4.27;;;2.50;;
7432;SDS011;32233;49.500;7.764;2023-01-01T08:43:41;6.10;;;1.90;;
7432;SDS011;32233;49.500;7.764;2023-01-01T08:46:08;3.90;;;2.30;;
7432;SDS011;32233;49.500;7.764;2023-01-01T08:48:34;6.30;;;2.20;;
7432;SDS011;32233;49.500;7.764;2023-01-01T08:51:01;5.33;;;2.10;;
7432;SDS011;32233;49.500;7.764;2023-01-01T08:53:28;7.17;;;2.03;;
7432;SDS011;32233;49.500;7.764;2023-01-01T08:56:00;4.93;;;1.90;;
7432;SDS011;32233;49.500;7.764;2023-01-01T08:58:29;4.43;;;1.93;;
7432;SDS011;32233;49.500;7.764;2023-01-01T09:00:56;5.33;;;2.43;;
7432;SDS011;32233;49.500;7.764;2023-01-01T09:03:24;5.93;;;1.90;;
7432;SDS011;32233;49.500;7.764;2023-01-01T09:05:51;3.70;;;2.30;;
7432;SDS011;32233;49.500;7.764;2023-01-01T09:08:18;5.37;;;1.80;;
7432;SDS011;32233;49.500;7.764;2023-01-01T09:10:45;5.23;;;1.90;;
7432;SDS011;32233;49.500;7.764;2023-01-01T09:13:14;3.70;;;1.67;;
7432;SDS011;32233;49.500;7.764;2023-01-01T09:15:43;2.97;;;1.80;;
7432;SDS011;32233;49.500;7.764;2023-01-01T09:18:09;6.60;;;2.20;;
7432;SDS011;32233;49.500;7.764;2023-01-01T09:20:36;3.37;;;1.90;;
7432;SDS011;32233;49.500;7.764;2023-01-01T09:23:05;4.70;;;2.00;;
7432;SDS011;32233;49.500;7.764;2023-01-01T09:25:33;6.73;;;1.70;;
7432;SDS011;32233;49.500;7.764;2023-01-01T09:28:01;5.07;;;2.10;;
7432;SDS011;32233;49.500;7.764;2023-01-01T09:30:30;6.17;;;2.03;;
7432;SDS011;32233;49.500;7.764;2023-01-01T09:32:57;3.77;;;2.20;;
7432;SDS011;32233;49.500;7.764;2023-01-01T09:35:24;5.10;;;2.13;;
7432;SDS011;32233;49.500;7.764;2023-01-01T09:37:50;6.93;;;1.70;;
7432;SDS011;32233;49.500;7.764;2023-01-01T09:42:53;4.57;;;2.13;;
7432;SDS011;32233;49.500;7.764;2023-01-01T09:45:34;4.17;;;2.10;;
7432;SDS011;32233;49.500;7.764;2023-01-01T09:48:10;5.63;;;2.00;;
7432;SDS011;32233;49.500;7.764;2023-01-01T09:50:42;5.63;;;2.20;;
7432;SDS011;32233;49.500;7.764;2023-01-01T09:58:25;6.97;;;2.53;;
7432;SDS011;32233;49.500;7.764;2023-01-01T10:00:54;6.63;;;2.17;;
7432;SDS011;32233;49.500;7.764;2023-01-01T10:06:14;6.13;;;1.80;;
7432;SDS011;32233;49.500;7.764;2023-01-01T10:14:16;7.70;;;2.03;;
7432;SDS011;32233;49.500;7.764;2023-01-01T10:16:51;6.17;;;2.17;;
7432;SDS011;32233;49.500;7.764;2023-01-01T10:19:29;4.77;;;1.90;;
7432;SDS011;32233;49.500;7.764;2023-01-01T10:22:01;5.30;;;2.27;;
7432;SDS011;32233;49.500;7.764;2023-01-01T10:24:35;4.90;;;2.27;;
7432;SDS011;32233;49.500;7.764;2023-01-01T10:27:04;5.67;;;2.10;;
7432;SDS011;32233;49.500;7.764;2023-01-01T10:29:36;3.43;;;1.90;;
7432;SDS011;32233;49.500;7.764;2023-01-01T10:34:46;6.13;;;1.93;;
7432;SDS011;32233;49.500;7.764;2023-01-01T10:37:15;7.10;;;2.17;;
7432;SDS011;32233;49.500;7.764;2023-01-01T10:39:42;5.27;;;2.00;;
7432;SDS011;32233;49.500;7.764;2023-01-01T10:42:11;4.03;;;1.90;;
7432;SDS011;32233;49.500;7.764;2023-01-01T10:44:38;3.97;;;2.00;;
7432;SDS011;32233;49.500;7.764;2023-01-01T10:50:03;3.30;;;1.60;;
7432;SDS011;32233;49.500;7.764;2023-01-01T10:52:37;4.43;;;1.87;;
7432;SDS011;32233;49.500;7.764;2023-01-01T10:55:17;6.03;;;2.00;;
7432;SDS011;32233;49.500;7.764;2023-01-01T10:57:45;5.73;;;1.73;;
7432;SDS011;32233;49.500;7.764;2023-01-01T11:05:38;7.27;;;2.50;;
7432;SDS011;32233;49.500;7.764;2023-01-01T11:08:14;5.67;;;2.37;;
7432;SDS011;32233;49.500;7.764;2023-01-01T11:10:48;6.17;;;2.63;;
7432;SDS011;32233;49.500;7.764;2023-01-01T11:13:17;7.00;;;2.17;;
7432;SDS011;32233;49.500;7.764;2023-01-01T11:15:45;4.33;;;1.87;;
7432;SDS011;32233;49.500;7.764;2023-01-01T11:18:30;6.50;;;2.10;;
7432;SDS011;32233;49.500;7.764;2023-01-01T11:21:02;5.77;;;1.97;;
7432;SDS011;32233;49.500;7.764;2023-01-01T11:23:34;7.23;;;2.90;;
7432;SDS011;32233;49.500;7.764;2023-01-01T11:26:04;8.17;;;2.43;;
7432;SDS011;32233;49.500;7.764;2023-01-01T11:28:35;5.73;;;2.37;;
7432;SDS011;32233;49.500;7.764;2023-01-01T11:33:36;5.60;;;2.30;;
7432;SDS011;32233;49.500;7.764;2023-01-01T11:36:09;4.07;;;1.70;;
7432;SDS011;32233;49.500;7.764;2023-01-01T11:38:36;6.93;;;2.47;;
7432;SDS011;32233;49.500;7.764;2023-01-01T11:41:03;3.97;;;2.07;;
7432;SDS011;32233;49.500;7.764;2023-01-01T11:43:34;9.13;;;2.50;;
7432;SDS011;32233;49.500;7.764;2023-01-01T11:46:05;10.60;;;2.17;;
7432;SDS011;32233;49.500;7.764;2023-01-01T11:48:34;5.70;;;2.03;;
7432;SDS011;32233;49.500;7.764;2023-01-01T11:51:03;6.77;;;2.03;;
7432;SDS011;32233;49.500;7.764;2023-01-01T11:53:33;7.10;;;2.47;;
7432;SDS011;32233;49.500;7.764;2023-01-01T11:56:21;5.83;;;2.03;;
7432;SDS011;32233;49.500;7.764;2023-01-01T12:04:01;6.60;;;2.00;;
7432;SDS011;32233;49.500;7.764;2023-01-01T12:06:42;6.53;;;2.00;;
7432;SDS011;32233;49.500;7.764;2023-01-01T12:09:41;8.13;;;2.20;;
7432;SDS011;32233;49.500;7.764;2023-01-01T12:20:33;7.80;;;2.17;;
7432;SDS011;32233;49.500;7.764;2023-01-01T12:23:04;8.63;;;2.83;;
7432;SDS011;32233;49.500;7.764;2023-01-01T12:25:40;5.67;;;2.27;;
7432;SDS011;32233;49.500;7.764;2023-01-01T12:28:14;6.07;;;2.07;;
7432;SDS011;32233;49.500;7.764;2023-01-01T12:36:36;4.83;;;2.50;;
7432;SDS011;32233;49.500;7.764;2023-01-01T12:48:20;6.93;;;2.60;;
7432;SDS011;32233;49.500;7.764;2023-01-01T12:51:05;8.67;;;3.53;;
7432;SDS011;32233;49.500;7.764;2023-01-01T12:53:34;6.80;;;2.50;;
7432;SDS011;32233;49.500;7.764;2023-01-01T12:59:15;6.03;;;2.53;;
7432;SDS011;32233;49.500;7.764;2023-01-01T13:01:47;7.00;;;2.83;;
7432;SDS011;32233;49.500;7.764;2023-01-01T13:04:17;7.00;;;2.90;;
7432;SDS011;32233;49.500;7.764;2023-01-01T13:09:36;5.70;;;2.23;;
7432;SDS011;32233;49.500;7.764;2023-01-01T13:12:07;8.67;;;2.37;;
7432;SDS011;32233;49.500;7.764;2023-01-01T13:14:39;10.30;;;3.47;;
7432;SDS011;32233;49.500;7.764;2023-01-01T13:17:17;5.73;;;2.70;;
7432;SDS011;32233;49.500;7.764;2023-01-01T13:19:52;7.60;;;2.30;;
7432;SDS011;32233;49.500;7.764;2023-01-01T13:25:03;3.73;;;2.27;;
7432;SDS011;32233;49.500;7.764;2023-01-01T13:38:47;9.20;;;2.33;;
7432;SDS011;32233;49.500;7.764;2023-01-01T13:54:46;10.87;;;2.40;;
7432;SDS011;32233;49.500;7.764;2023-01-01T14:00:15;7.63;;;2.57;;
7432;SDS011;32233;49.500;7.764;2023-01-01T14:02:46;8.80;;;2.50;;
7432;SDS011;32233;49.500;7.764;2023-01-01T14:05:29;11.30;;;2.30;;
7432;SDS011;32233;49.500;7.764;2023-01-01T14:08:00;7.80;;;2.80;;
7432;SDS011;32233;49.500;7.764;2023-01-01T14:10:34;5.07;;;2.03;;
7432;SDS011;32233;49.500;7.764;2023-01-01T14:17:59;6.50;;;2.40;;
7432;SDS011;32233;49.500;7.764;2023-01-01T14:23:21;7.73;;;2.93;;
7432;SDS011;32233;49.500;7.764;2023-01-01T14:25:53;4.17;;;2.40;;
7432;SDS011;32233;49.500;7.764;2023-01-01T14:28:30;5.20;;;2.63;;
7432;SDS011;32233;49.500;7.764;2023-01-01T14:30:58;4.03;;;2.27;;
7432;SDS011;32233;49.500;7.764;2023-01-01T14:33:35;8.33;;;3.03;;
7432;SDS011;32233;49.500;7.764;2023-01-01T14:36:03;7.40;;;3.20;;
7432;SDS011;32233;49.500;7.764;2023-01-01T14:38:32;5.87;;;3.03;;
7432;SDS011;32233;49.500;7.764;2023-01-01T14:41:11;5.27;;;2.53;;
7432;SDS011;32233;49.500;7.764;2023-01-01T14:43:44;7.23;;;2.40;;
7432;SDS011;32233;49.500;7.764;2023-01-01T14:46:17;9.43;;;2.70;;
7432;SDS011;32233;49.500;7.764;2023-01-01T14:48:50;3.43;;;2.80;;
7432;SDS011;32233;49.500;7.764;2023-01-01T14:51:31;7.67;;;2.60;;
7432;SDS011;32233;49.500;7.764;2023-01-01T14:54:03;6.23;;;3.10;;
7432;SDS011;32233;49.500;7.764;2023-01-01T14:56:31;9.43;;;3.17;;
7432;SDS011;32233;49.500;7.764;2023-01-01T15:01:33;7.93;;;3.67;;
7432;SDS011;32233;49.500;7.764;2023-01-01T15:04:01;7.60;;;3.67;;
7432;SDS011;32233;49.500;7.764;2023-01-01T15:06:29;6.60;;;3.73;;
7432;SDS011;32233;49.500;7.764;2023-01-01T15:08:57;8.33;;;3.97;;
7432;SDS011;32233;49.500;7.764;2023-01-01T15:11:24;7.40;;;4.07;;
7432;SDS011;32233;49.500;7.764;2023-01-01T15:14:01;7.43;;;4.33;;
7432;SDS011;32233;49.500;7.764;2023-01-01T15:16:28;6.93;;;4.13;;
7432;SDS011;32233;49.500;7.764;2023-01-01T15:19:14;5.83;;;3.63;;
7432;SDS011;32233;49.500;7.764;2023-01-01T15:21:42;8.93;;;4.37;;
7432;SDS011;32233;49.500;7.764;2023-01-01T15:26:57;9.17;;;4.57;;
7432;SDS011;32233;49.500;7.764;2023-01-01T15:32:07;13.00;;;6.20;;
7432;SDS011;32233;49.500;7.764;2023-01-01T15:37:15;15.27;;;6.93;;
7432;SDS011;32233;49.500;7.764;2023-01-01T15:39:50;19.10;;;9.30;;
7432;SDS011;32233;49.500;7.764;2023-01-01T15:45:19;19.70;;;11.57;;
7432;SDS011;32233;49.500;7.764;2023-01-01T15:47:47;19.57;;;10.50;;
7432;SDS011;32233;49.500;7.764;2023-01-01T15:50:20;11.90;;;7.37;;
7432;SDS011;32233;49.500;7.764;2023-01-01T15:53:24;17.27;;;9.10;;
7432;SDS011;32233;49.500;7.764;2023-01-01T15:55:53;14.63;;;8.00;;
7432;SDS011;32233;49.500;7.764;2023-01-01T15:58:22;11.70;;;7.90;;
7432;SDS011;32233;49.500;7.764;2023-01-01T16:00:57;14.27;;;8.20;;
7432;SDS011;32233;49.500;7.764;2023-01-01T16:03:27;13.03;;;8.93;;
7432;SDS011;32233;49.500;7.764;2023-01-01T16:05:56;15.00;;;8.27;;
7432;SDS011;32233;49.500;7.764;2023-01-01T16:08:23;13.73;;;8.30;;
7432;SDS011;32233;49.500;7.764;2023-01-01T16:10:50;13.90;;;8.13;;
7432;SDS011;32233;49.500;7.764;2023-01-01T16:13:17;12.60;;;6.70;;
7432;SDS011;32233;49.500;7.764;2023-01-01T16:15:48;15.83;;;7.77;;
7432;SDS011;32233;49.500;7.764;2023-01-01T16:18:27;12.77;;;6.73;;
7432;SDS011;32233;49.500;7.764;2023-01-01T16:20:56;12.93;;;6.60;;
7432;SDS011;32233;49.500;7.764;2023-01-01T16:23:22;12.50;;;9.23;;
7432;SDS011;32233;49.500;7.764;2023-01-01T16:25:49;17.10;;;11.57;;
7432;SDS011;32233;49.500;7.764;2023-01-01T16:28:16;17.73;;;12.47;;
7432;SDS011;32233;49.500;7.764;2023-01-01T16:30:42;16.70;;;10.53;;
7432;SDS011;32233;49.500;7.764;2023-01-01T16:33:13;13.07;;;9.67;;
7432;SDS011;32233;49.500;7.764;2023-01-01T16:35:41;13.93;;;9.00;;
7432;SDS011;32233;49.500;7.764;2023-01-01T16:38:07;9.53;;;6.70;;
7432;SDS011;32233;49.500;7.764;2023-01-01T16:40:34;13.63;;;7.47;;
7432;SDS011;32233;49.500;7.764;2023-01-01T16:43:04;12.93;;;8.20;;
7432;SDS011;32233;49.500;7.764;2023-01-01T16:45:34;12.50;;;7.33;;
7432;SDS011;32233;49.500;7.764;2023-01-01T16:48:01;14.70;;;6.33;;
7432;SDS011;32233;49.500;7.764;2023-01-01T16:50:28;11.80;;;6.23;;
7432;SDS011;32233;49.500;7.764;2023-01-01T16:52:54;10.40;;;7.07;;
7432;SDS011;32233;49.500;7.764;2023-01-01T16:55:21;14.47;;;7.77;;
7432;SDS011;32233;49.500;7.764;2023-01-01T16:57:47;12.70;;;8.53;;
7432;SDS011;32233;49.500;7.764;2023-01-01T17:00:14;11.43;;;8.83;;
7432;SDS011;32233;49.500;7.764;2023-01-01T17:02:40;12.90;;;7.63;;
7432;SDS011;32233;49.500;7.764;2023-01-01T17:05:08;14.80;;;8.00;;
7432;SDS011;32233;49.500;7.764;2023-01-01T17:07:35;12.60;;;7.03;;
7432;SDS011;32233;49.500;7.764;2023-01-01T17:10:02;13.57;;;6.80;;
7432;SDS011;32233;49.500;7.764;2023-01-01T17:12:30;10.50;;;5.60;;
7432;SDS011;32233;49.500;7.764;2023-01-01T17:14:56;14.40;;;7.33;;
7432;SDS011;32233;49.500;7.764;2023-01-01T17:17:24;15.90;;;9.00;;
7432;SDS011;32233;49.500;7.764;2023-01-01T17:19:51;16.77;;;9.57;;
7432;SDS011;32233;49.500;7.764;2023-01-01T17:22:17;17.07;;;10.30;;
7432;SDS011;32233;49.500;7.764;2023-01-01T17:24:44;21.30;;;11.90;;
7432;SDS011;32233;49.500;7.764;2023-01-01T17:27:10;22.93;;;12.90;;
7432;SDS011;32233;49.500;7.764;2023-01-01T17:29:37;21.80;;;13.20;;
7432;SDS011;32233;49.500;7.764;2023-01-01T17:32:04;19.10;;;12.63;;
7432;SDS011;32233;49.500;7.764;2023-01-01T17:34:31;21.87;;;13.10;;
7432;SDS011;32233;49.500;7.764;2023-01-01T17:36:57;27.07;;;15.57;;
7432;SDS011;32233;49.500;7.764;2023-01-01T17:39:24;26.87;;;15.13;;
7432;SDS011;32233;49.500;7.764;2023-01-01T17:41:50;22.63;;;14.00;;